createdAt,value
2019-03-28T00:04:07.441Z,14.67
2019-03-28T00:08:21.393Z,13.20
2019-03-28T00:12:34.522Z,14.57
2019-03-28T00:16:48.435Z,13.77
2019-03-28T00:21:01.666Z,13.67
2019-03-28T00:25:15.251Z,14.13
2019-03-28T00:29:28.762Z,13.87
2019-03-28T00:33:42.029Z,14.87
2019-03-28T00:37:55.257Z,13.83
2019-03-28T00:42:08.084Z,14.60
2019-03-28T00:46:21.265Z,14.30
2019-03-28T00:50:34.726Z,14.07
2019-03-28T00:54:48.419Z,13.83
2019-03-28T00:59:01.647Z,15.33
2019-03-28T01:03:14.568Z,14.47
2019-03-28T01:07:27.591Z,14.50
2019-03-28T01:11:40.732Z,14.53
2019-03-28T01:15:53.656Z,15.30
2019-03-28T01:20:06.828Z,14.73
2019-03-28T01:24:20.091Z,14.40
2019-03-28T01:28:33.473Z,14.93
2019-03-28T01:32:46.397Z,14.93
2019-03-28T01:36:59.326Z,15.13
2019-03-28T01:41:12.452Z,15.07
2019-03-28T01:45:25.289Z,15.23
2019-03-28T01:49:38.409Z,15.23
2019-03-28T01:53:51.722Z,14.87
2019-03-28T01:58:05.282Z,15.90
2019-03-28T02:02:18.628Z,16.50
2019-03-28T02:06:31.563Z,16.47
2019-03-28T02:10:44.584Z,15.93
2019-03-28T02:14:58.140Z,16.53
2019-03-28T02:19:11.784Z,16.80
2019-03-28T02:23:24.684Z,17.30
2019-03-28T02:27:37.760Z,17.53
2019-03-28T02:31:51.033Z,17.03
2019-03-28T02:36:03.800Z,18.17
2019-03-28T02:40:16.890Z,17.17
2019-03-28T02:44:30.146Z,17.00
2019-03-28T02:48:43.382Z,16.97
2019-03-28T02:52:56.313Z,16.43
2019-03-28T02:57:09.503Z,17.20
2019-03-28T03:01:22.676Z,17.20
2019-03-28T03:05:35.504Z,16.00
2019-03-28T03:09:49.555Z,16.33
2019-03-28T03:14:02.487Z,16.33
2019-03-28T03:18:15.532Z,17.43
2019-03-28T03:22:28.923Z,17.13
2019-03-28T03:26:42.338Z,15.87
2019-03-28T03:30:55.216Z,16.17
2019-03-28T03:35:08.353Z,15.90
2019-03-28T03:39:21.489Z,15.50
2019-03-28T03:43:34.309Z,16.77
2019-03-28T03:47:47.246Z,16.03
2019-03-28T03:52:00.476Z,16.40
2019-03-28T03:56:14.240Z,17.17
2019-03-28T04:00:34.743Z,15.27
2019-03-28T04:04:47.979Z,15.80
2019-03-28T04:09:01.001Z,16.40
2019-03-28T04:13:14.656Z,15.80
2019-03-28T04:17:27.912Z,16.17
2019-03-28T04:21:40.816Z,15.83
2019-03-28T04:25:53.941Z,16.40
2019-03-28T04:30:07.437Z,17.30
2019-03-28T04:34:21.034Z,17.03
2019-03-28T04:38:34.249Z,18.60
2019-03-28T04:42:47.173Z,16.47
2019-03-28T04:47:00.104Z,17.50
2019-03-28T04:51:13.666Z,18.13
2019-03-28T04:55:26.880Z,17.17
2019-03-28T04:59:40.155Z,18.17
2019-03-28T05:03:53.109Z,18.10
2019-03-28T05:08:06.276Z,17.87
2019-03-28T05:12:19.414Z,18.63
2019-03-28T05:16:32.340Z,18.37
2019-03-28T05:20:45.370Z,19.40
2019-03-28T05:24:58.931Z,18.53
2019-03-28T05:29:12.780Z,19.23
2019-03-28T05:33:26.061Z,18.83
2019-03-28T05:37:39.236Z,20.10
2019-03-28T05:41:52.156Z,19.47
2019-03-28T05:46:05.201Z,20.53
2019-03-28T05:50:18.321Z,20.30
2019-03-28T05:54:31.255Z,19.27
2019-03-28T05:58:44.275Z,18.77
2019-03-28T06:02:57.840Z,19.23
2019-03-28T06:07:11.483Z,19.33
2019-03-28T06:11:24.804Z,19.80
2019-03-28T06:15:40.813Z,19.93
2019-03-28T06:19:52.493Z,20.53
2019-03-28T06:24:05.532Z,20.43
2019-03-28T06:28:18.861Z,20.53
2019-03-28T06:32:42.222Z,19.30
2019-03-28T06:36:47.661Z,20.17
2019-03-28T06:41:00.520Z,21.17
2019-03-28T06:45:13.547Z,21.00
2019-03-28T06:49:27.109Z,22.17
2019-03-28T06:53:40.753Z,21.23
2019-03-28T06:57:54.068Z,22.23
2019-03-28T07:02:07.300Z,20.67
2019-03-28T07:06:20.277Z,21.27
2019-03-28T07:10:33.361Z,19.93
2019-03-28T07:14:47.044Z,19.23
2019-03-28T07:19:00.244Z,20.23
2019-03-28T07:23:12.970Z,20.47
2019-03-28T07:27:26.100Z,19.90
2019-03-28T07:31:40.501Z,18.87
2019-03-28T07:35:53.593Z,18.70
2019-03-28T07:40:07.012Z,18.10
2019-03-28T07:44:20.088Z,17.53
2019-03-28T07:48:34.008Z,16.73
2019-03-28T07:52:47.111Z,16.40
2019-03-28T07:57:01.017Z,16.37
2019-03-28T08:01:14.230Z,15.37
2019-03-28T08:05:27.056Z,16.03
2019-03-28T08:09:40.053Z,15.87
2019-03-28T08:13:53.220Z,15.30
2019-03-28T08:18:06.617Z,14.33
2019-03-28T08:22:19.595Z,15.07
2019-03-28T08:26:32.724Z,14.77
2019-03-28T08:30:46.385Z,13.07
2019-03-28T08:35:00.387Z,13.20
2019-03-28T08:39:14.577Z,13.57
2019-03-28T08:43:27.565Z,13.73
2019-03-28T08:47:40.642Z,13.90
2019-03-28T08:51:54.299Z,13.37
2019-03-28T08:56:07.943Z,13.93
2019-03-28T09:00:32.251Z,12.47
2019-03-28T09:04:36.033Z,14.00
2019-03-28T09:08:48.960Z,13.23
2019-03-28T09:13:02.485Z,14.67
2019-03-28T09:17:17.169Z,14.27
2019-03-28T09:21:30.513Z,15.97
2019-03-28T09:25:43.443Z,14.70
2019-03-28T09:29:56.592Z,14.53
2019-03-28T09:34:10.231Z,14.70
2019-03-28T09:38:23.878Z,14.03
2019-03-28T09:42:37.162Z,12.43
2019-03-28T09:46:50.442Z,12.73
2019-03-28T09:51:03.365Z,14.80
2019-03-28T09:55:18.857Z,13.27
2019-03-28T09:59:31.615Z,13.67
2019-03-28T10:03:44.952Z,13.57
2019-03-28T10:07:57.982Z,14.93
2019-03-28T10:12:11.170Z,12.13
2019-03-28T10:16:24.442Z,12.87
2019-03-28T10:20:37.782Z,12.87
2019-03-28T10:24:50.819Z,12.43
2019-03-28T10:29:04.070Z,12.73
2019-03-28T10:33:17.674Z,12.13
2019-03-28T10:37:31.315Z,10.97
2019-03-28T10:41:44.571Z,11.57
2019-03-28T10:45:57.570Z,11.53
2019-03-28T10:50:11.816Z,11.53
2019-03-28T10:54:25.885Z,12.97
2019-03-28T10:58:39.210Z,11.73
2019-03-28T11:02:53.031Z,11.40
2019-03-28T11:07:07.857Z,11.67
2019-03-28T11:11:20.773Z,11.80
2019-03-28T11:15:33.875Z,10.53
2019-03-28T11:19:47.138Z,10.83
2019-03-28T11:24:00.815Z,11.57
2019-03-28T11:28:14.113Z,11.07
2019-03-28T11:32:27.069Z,10.03
2019-03-28T11:36:40.236Z,10.33
2019-03-28T11:40:53.400Z,10.43
2019-03-28T11:45:09.266Z,10.10
2019-03-28T11:49:21.264Z,10.20
2019-03-28T11:53:34.338Z,10.60
2019-03-28T11:57:48.292Z,10.77
2019-03-28T12:02:18.641Z,10.73
2019-03-28T12:06:16.185Z,11.70
2019-03-28T12:10:29.417Z,12.63
2019-03-28T12:14:42.250Z,13.20
2019-03-28T12:18:55.572Z,13.63
2019-03-28T12:23:08.719Z,12.67
2019-03-28T12:27:22.052Z,12.87
2019-03-28T12:31:35.098Z,12.60
2019-03-28T12:35:48.283Z,13.17
2019-03-28T12:40:01.979Z,13.80
2019-03-28T12:44:15.208Z,12.70
2019-03-28T12:48:28.760Z,14.33
2019-03-28T12:52:41.732Z,12.07
2019-03-28T12:56:57.946Z,13.97
2019-03-28T13:01:09.567Z,13.07
2019-03-28T13:05:22.292Z,12.13
2019-03-28T13:09:35.852Z,13.47
2019-03-28T13:13:48.969Z,13.87
2019-03-28T13:18:02.524Z,12.30
2019-03-28T13:22:15.832Z,14.83
2019-03-28T13:26:28.663Z,14.80
2019-03-28T13:30:41.742Z,16.17
2019-03-28T13:34:55.463Z,17.10
2019-03-28T13:39:09.626Z,17.50
2019-03-28T13:43:22.729Z,15.60
2019-03-28T13:47:35.972Z,17.13
2019-03-28T13:51:48.801Z,17.13
2019-03-28T13:56:01.906Z,18.27
2019-03-28T14:00:15.498Z,17.23
2019-03-28T14:04:28.608Z,18.73
2019-03-28T14:08:41.740Z,16.80
2019-03-28T14:12:54.660Z,19.70
2019-03-28T14:17:07.693Z,18.10
2019-03-28T14:21:20.511Z,18.17
2019-03-28T14:25:33.541Z,18.27
2019-03-28T14:29:47.505Z,19.60
2019-03-28T14:34:00.828Z,16.83
2019-03-28T14:38:14.699Z,18.87
2019-03-28T14:42:27.927Z,18.83
2019-03-28T14:46:41.151Z,16.87
2019-03-28T14:50:54.051Z,15.93
2019-03-28T14:55:07.117Z,17.53
2019-03-28T14:59:31.716Z,18.77
2019-03-28T15:03:35.829Z,18.17
2019-03-28T15:07:51.532Z,16.53
2019-03-28T15:12:04.760Z,18.10
2019-03-28T15:16:17.893Z,16.10
2019-03-28T15:20:30.825Z,17.30
2019-03-28T15:24:43.872Z,16.37
2019-03-28T15:28:57.508Z,17.23
2019-03-28T15:33:11.359Z,18.40
2019-03-28T15:37:24.737Z,18.53
2019-03-28T15:41:37.873Z,20.07
2019-03-28T15:45:50.844Z,16.47
2019-03-28T15:50:03.877Z,16.83
2019-03-28T15:54:17.530Z,17.97
2019-03-28T15:58:30.748Z,19.70
2019-03-28T16:02:43.854Z,16.63
2019-03-28T16:06:56.815Z,17.77
2019-03-28T16:11:10.049Z,18.90
2019-03-28T16:15:22.876Z,19.07
2019-03-28T16:19:35.902Z,18.23
2019-03-28T16:23:49.455Z,19.33
2019-03-28T16:28:02.676Z,19.30
2019-03-28T16:32:16.277Z,17.87
2019-03-28T16:36:29.383Z,17.03
2019-03-28T16:40:42.385Z,17.10
2019-03-28T16:44:55.612Z,16.20
2019-03-28T16:49:08.752Z,16.33
2019-03-28T16:53:21.572Z,14.83
2019-03-28T16:57:34.728Z,15.00
2019-03-28T17:01:48.249Z,18.20
2019-03-28T17:06:03.441Z,17.60
2019-03-28T17:10:44.817Z,17.53
2019-03-28T17:14:58.479Z,17.00
2019-03-28T17:19:11.704Z,14.97
2019-03-28T17:23:24.624Z,15.00
2019-03-28T17:27:37.668Z,15.13
2019-03-28T17:31:51.089Z,14.03
2019-03-28T17:36:04.857Z,14.40
2019-03-28T17:40:18.501Z,13.13
2019-03-28T17:44:32.145Z,13.83
2019-03-28T17:48:45.369Z,15.60
2019-03-28T17:52:58.204Z,14.20
2019-03-28T17:57:13.574Z,13.03
2019-03-28T18:01:26.715Z,14.83
2019-03-28T18:05:40.812Z,15.60
2019-03-28T18:09:53.897Z,15.53
2019-03-28T18:14:07.445Z,16.80
2019-03-28T18:18:20.674Z,15.73
2019-03-28T18:22:33.600Z,13.00
2019-03-28T18:26:46.635Z,14.13
2019-03-28T18:30:59.864Z,13.00
2019-03-28T18:35:13.110Z,11.33
2019-03-28T18:39:26.235Z,13.33
2019-03-28T18:43:39.369Z,12.83
2019-03-28T18:47:52.602Z,12.60
2019-03-28T18:52:07.388Z,12.93
2019-03-28T18:56:20.333Z,12.20
2019-03-28T19:00:34.240Z,12.03
2019-03-28T19:04:47.382Z,13.40
2019-03-28T19:09:01.144Z,13.47
2019-03-28T19:13:14.353Z,13.53
2019-03-28T19:17:27.601Z,13.70
2019-03-28T19:21:40.517Z,13.07
2019-03-28T19:25:53.562Z,16.20
2019-03-28T19:30:07.295Z,16.53
2019-03-28T19:34:20.670Z,16.87
2019-03-28T19:38:34.250Z,16.43
2019-03-28T19:42:47.938Z,17.53
2019-03-28T19:47:01.587Z,17.47
2019-03-28T19:51:14.810Z,17.47
2019-03-28T19:55:28.763Z,19.03
2019-03-28T19:59:41.994Z,18.27
2019-03-28T20:03:55.754Z,18.80
2019-03-28T20:08:15.452Z,19.33
2019-03-28T20:12:24.231Z,19.73
2019-03-28T20:16:37.494Z,20.70
2019-03-28T20:20:50.417Z,19.60
2019-03-28T20:25:03.449Z,21.23
2019-03-28T20:29:16.686Z,20.50
2019-03-28T20:33:29.569Z,21.23
2019-03-28T20:37:42.699Z,21.67
2019-03-28T20:41:56.296Z,21.83
2019-03-28T20:46:09.517Z,22.53
2019-03-28T20:50:23.051Z,21.73
2019-03-28T20:54:35.989Z,22.00
2019-03-28T20:58:48.913Z,23.33
2019-03-28T21:03:03.281Z,22.77
2019-03-28T21:07:18.674Z,21.67
2019-03-28T21:11:31.649Z,21.37
2019-03-28T21:15:45.732Z,22.03
2019-03-28T21:19:58.878Z,23.17
2019-03-28T21:24:11.928Z,22.10
2019-03-28T21:28:25.389Z,21.73
2019-03-28T21:32:39.107Z,23.57
2019-03-28T21:36:52.957Z,22.83
2019-03-28T21:41:06.270Z,22.57
2019-03-28T21:45:19.517Z,22.53
2019-03-28T21:49:32.853Z,23.20
2019-03-28T21:53:45.789Z,22.93
2019-03-28T21:57:58.825Z,23.43
2019-03-28T22:02:12.470Z,23.70
2019-03-28T22:06:25.810Z,24.63
2019-03-28T22:10:38.622Z,23.33
2019-03-28T22:14:51.607Z,23.83
2019-03-28T22:19:05.433Z,22.97
2019-03-28T22:23:18.628Z,23.67
2019-03-28T22:27:32.285Z,24.70
2019-03-28T22:31:45.934Z,23.30
2019-03-28T22:35:59.286Z,23.87
2019-03-28T22:40:13.117Z,24.67
2019-03-28T22:44:26.864Z,23.37
2019-03-28T22:48:40.156Z,22.83
2019-03-28T22:52:53.530Z,22.87
2019-03-28T22:57:07.649Z,23.50
2019-03-28T23:01:21.075Z,23.77
2019-03-28T23:05:34.657Z,24.10
2019-03-28T23:09:47.906Z,23.90
2019-03-28T23:14:00.833Z,23.63
2019-03-28T23:18:13.933Z,23.13
2019-03-28T23:22:27.189Z,24.03
2019-03-28T23:26:40.425Z,24.07
2019-03-28T23:30:53.158Z,22.30
2019-03-28T23:35:06.653Z,22.83
2019-03-28T23:39:20.009Z,22.77
2019-03-28T23:43:33.164Z,22.43
2019-03-28T23:47:46.149Z,22.97
2019-03-28T23:51:59.225Z,22.77
2019-03-28T23:56:12.465Z,22.57
